createdAt,value
2023-03-18T00:01:03.598Z,-0.14
2023-03-18T00:03:32.149Z,-0.10
2023-03-18T00:06:05.695Z,-0.08
2023-03-18T00:08:33.175Z,-0.06
2023-03-18T00:11:00.511Z,-0.01
2023-03-18T00:13:27.764Z,0.05
2023-03-18T00:15:54.473Z,0.09
2023-03-18T00:18:21.118Z,0.09
2023-03-18T00:20:47.802Z,0.03
2023-03-18T00:23:14.938Z,-0.04
2023-03-18T00:25:42.382Z,-0.06
2023-03-18T00:28:09.140Z,-0.10
2023-03-18T00:30:38.570Z,-0.08
2023-03-18T00:33:05.715Z,-0.07
2023-03-18T00:35:33.149Z,-0.10
2023-03-18T00:38:00.090Z,-0.13
2023-03-18T00:40:30.182Z,-0.13
2023-03-18T00:43:07.177Z,-0.15
2023-03-18T00:45:37.101Z,-0.17
2023-03-18T00:48:04.618Z,-0.25
2023-03-18T00:50:31.398Z,-0.28
2023-03-18T00:52:59.072Z,-0.29
2023-03-18T00:55:27.027Z,-0.18
2023-03-18T00:57:53.875Z,-0.13
2023-03-18T01:00:21.120Z,-0.09
2023-03-18T01:02:50.524Z,-0.10
2023-03-18T01:05:17.941Z,-0.12
2023-03-18T01:07:44.849Z,-0.21
2023-03-18T01:10:14.054Z,-0.26
2023-03-18T01:12:46.034Z,-0.34
2023-03-18T01:15:16.538Z,-0.39
2023-03-18T01:17:45.007Z,-0.36
2023-03-18T01:20:17.438Z,-0.34
2023-03-18T01:22:44.944Z,-0.33
2023-03-18T01:25:15.684Z,-0.35
2023-03-18T01:27:43.739Z,-0.35
2023-03-18T01:30:12.845Z,-0.39
2023-03-18T01:32:40.732Z,-0.38
2023-03-18T01:35:08.065Z,-0.38
2023-03-18T01:37:36.158Z,-0.39
2023-03-18T01:40:11.341Z,-0.40
2023-03-18T01:42:37.970Z,-0.46
2023-03-18T01:45:22.668Z,-0.50
2023-03-18T01:47:51.048Z,-0.55
2023-03-18T01:50:26.792Z,-0.52
2023-03-18T01:53:00.905Z,-0.57
2023-03-18T01:55:30.112Z,-0.58
2023-03-18T01:57:59.231Z,-0.60
2023-03-18T02:00:26.046Z,-0.55
2023-03-18T02:02:54.120Z,-0.51
2023-03-18T02:05:26.981Z,-0.48
2023-03-18T02:07:53.738Z,-0.48
2023-03-18T02:10:25.303Z,-0.47
2023-03-18T02:13:03.634Z,-0.44
2023-03-18T02:15:38.047Z,-0.40
2023-03-18T02:18:26.885Z,-0.39
2023-03-18T02:21:12.028Z,-0.43
2023-03-18T02:23:54.064Z,-0.49
2023-03-18T02:26:44.052Z,-0.55
2023-03-18T02:29:15.418Z,-0.62
2023-03-18T02:31:49.408Z,-0.66
2023-03-18T02:34:25.176Z,-0.72
2023-03-18T02:36:53.224Z,-0.77
2023-03-18T02:39:22.017Z,-0.75
2023-03-18T02:41:49.772Z,-0.74
2023-03-18T02:44:19.090Z,-0.76
2023-03-18T02:47:11.061Z,-0.78
2023-03-18T02:49:38.213Z,-0.79
2023-03-18T02:52:06.342Z,-0.79
2023-03-18T02:54:33.233Z,-0.74
2023-03-18T02:57:01.360Z,-0.75
2023-03-18T02:59:29.121Z,-0.78
2023-03-18T03:01:57.047Z,-0.78
2023-03-18T03:04:25.410Z,-0.75
2023-03-18T03:06:54.461Z,-0.80
2023-03-18T03:09:31.656Z,-0.82
2023-03-18T03:11:58.393Z,-0.86
2023-03-18T03:14:25.945Z,-0.81
2023-03-18T03:16:56.281Z,-0.79
2023-03-18T03:19:23.225Z,-0.80
2023-03-18T03:21:49.965Z,-0.80
2023-03-18T03:24:16.908Z,-0.84
2023-03-18T03:26:44.114Z,-0.91
2023-03-18T03:29:12.436Z,-0.93
2023-03-18T03:31:39.012Z,-0.98
2023-03-18T03:34:06.631Z,-0.97
2023-03-18T03:36:33.671Z,-1.00
2023-03-18T03:39:00.634Z,-0.98
2023-03-18T03:41:27.804Z,-1.01
2023-03-18T03:43:54.815Z,-1.02
2023-03-18T03:46:21.498Z,-1.08
2023-03-18T03:48:49.230Z,-1.16
2023-03-18T03:51:16.524Z,-1.18
2023-03-18T03:53:45.681Z,-1.17
2023-03-18T03:56:12.719Z,-1.23
2023-03-18T03:58:39.613Z,-1.22
2023-03-18T04:01:08.010Z,-1.18
2023-03-18T04:03:35.098Z,-1.24
2023-03-18T04:06:06.060Z,-1.27
2023-03-18T04:08:33.030Z,-1.29
2023-03-18T04:10:59.982Z,-1.36
2023-03-18T04:13:27.006Z,-1.39
2023-03-18T04:15:54.368Z,-1.38
2023-03-18T04:18:21.242Z,-1.39
2023-03-18T04:20:48.335Z,-1.42
2023-03-18T04:23:35.851Z,-1.45
2023-03-18T04:26:04.840Z,-1.52
2023-03-18T04:28:32.505Z,-1.58
2023-03-18T04:30:59.712Z,-1.54
2023-03-18T04:33:27.422Z,-1.60
2023-03-18T04:35:54.186Z,-1.61
2023-03-18T04:38:20.895Z,-1.54
2023-03-18T04:40:49.194Z,-1.51
2023-03-18T04:43:16.424Z,-1.49
2023-03-18T04:45:43.366Z,-1.44
2023-03-18T04:48:10.206Z,-1.37
2023-03-18T04:50:39.929Z,-1.39
2023-03-18T04:53:09.367Z,-1.37
2023-03-18T04:55:37.196Z,-1.39
2023-03-18T04:58:05.256Z,-1.39
2023-03-18T05:00:36.960Z,-1.32
2023-03-18T05:03:14.215Z,-1.33
2023-03-18T05:05:41.352Z,-1.31
2023-03-18T05:08:09.732Z,-1.22
2023-03-18T05:10:36.675Z,-1.17
2023-03-18T05:13:03.515Z,-1.09
2023-03-18T05:15:33.419Z,-1.03
2023-03-18T05:18:00.801Z,-0.97
2023-03-18T05:20:28.163Z,-0.95
2023-03-18T05:22:55.111Z,-1.00
2023-03-18T05:25:34.634Z,-0.97
2023-03-18T05:28:02.031Z,-0.91
2023-03-18T05:30:38.870Z,-0.82
2023-03-18T05:33:05.775Z,-0.71
2023-03-18T05:35:47.168Z,-0.71
2023-03-18T05:38:14.356Z,-0.67
2023-03-18T05:40:41.200Z,-0.61
2023-03-18T05:43:17.674Z,-0.57
2023-03-18T05:45:49.762Z,-0.50
2023-03-18T05:48:17.596Z,-0.39
2023-03-18T05:50:51.871Z,-0.32
2023-03-18T05:53:21.619Z,-0.26
2023-03-18T05:55:52.044Z,-0.17
2023-03-18T05:58:20.521Z,-0.04
2023-03-18T06:00:49.925Z,0.04
2023-03-18T06:03:17.789Z,0.12
2023-03-18T06:05:44.560Z,0.26
2023-03-18T06:08:11.482Z,0.36
2023-03-18T06:10:38.424Z,0.50
2023-03-18T06:13:05.415Z,0.65
2023-03-18T06:15:33.103Z,0.83
2023-03-18T06:18:00.341Z,1.00
2023-03-18T06:20:28.472Z,1.14
2023-03-18T06:22:55.213Z,1.30
2023-03-18T06:25:23.487Z,1.46
2023-03-18T06:27:51.757Z,1.68
2023-03-18T06:30:21.053Z,1.94
2023-03-18T06:32:47.971Z,2.16
2023-03-18T06:35:16.093Z,2.38
2023-03-18T06:37:43.445Z,2.59
2023-03-18T06:40:11.812Z,2.80
2023-03-18T06:42:38.970Z,3.00
2023-03-18T06:45:12.722Z,3.25
2023-03-18T06:48:00.919Z,3.49
2023-03-18T06:50:28.991Z,3.73
2023-03-18T06:52:56.037Z,4.37
2023-03-18T06:55:27.587Z,6.02
2023-03-18T06:57:54.543Z,9.05
2023-03-18T07:00:25.237Z,12.14
2023-03-18T07:02:53.458Z,14.82
2023-03-18T07:05:24.075Z,17.13
2023-03-18T07:07:50.812Z,19.04
2023-03-18T07:10:23.870Z,20.56
2023-03-18T07:12:51.816Z,21.89
2023-03-18T07:15:21.979Z,22.92
2023-03-18T07:17:50.197Z,24.07
2023-03-18T07:20:17.641Z,24.86
2023-03-18T07:22:46.219Z,25.58
2023-03-18T07:25:13.128Z,26.34
2023-03-18T07:27:41.934Z,26.86
2023-03-18T07:30:09.363Z,27.44
2023-03-18T07:32:37.896Z,27.85
2023-03-18T07:35:05.958Z,27.93
2023-03-18T07:37:33.017Z,28.66
2023-03-18T07:39:59.720Z,28.75
2023-03-18T07:42:26.518Z,28.67
2023-03-18T07:44:54.631Z,29.23
2023-03-18T07:47:23.104Z,29.77
2023-03-18T07:49:51.306Z,30.41
2023-03-18T07:52:18.400Z,30.59
2023-03-18T07:54:44.993Z,29.79
2023-03-18T07:57:12.241Z,28.67
2023-03-18T07:59:39.308Z,26.28
2023-03-18T08:02:08.266Z,24.75
2023-03-18T08:04:35.143Z,22.90
2023-03-18T08:07:02.603Z,21.85
2023-03-18T08:09:29.258Z,21.04
2023-03-18T08:11:55.906Z,20.15
2023-03-18T08:14:22.723Z,20.17
2023-03-18T08:16:49.543Z,19.95
2023-03-18T08:19:16.346Z,19.75
2023-03-18T08:21:43.674Z,19.52
2023-03-18T08:24:10.523Z,19.63
2023-03-18T08:26:37.873Z,19.44
2023-03-18T08:29:04.792Z,19.32
2023-03-18T08:31:31.479Z,19.34
2023-03-18T08:34:00.141Z,19.98
2023-03-18T08:36:28.128Z,21.01
2023-03-18T08:38:54.756Z,21.10
2023-03-18T08:41:22.609Z,21.69
2023-03-18T08:43:51.905Z,21.98
2023-03-18T08:46:18.761Z,21.61
2023-03-18T08:48:46.177Z,21.36
2023-03-18T08:51:12.821Z,21.55
2023-03-18T08:53:40.095Z,21.02
2023-03-18T08:56:07.646Z,21.73
2023-03-18T08:58:35.514Z,22.89
2023-03-18T09:01:04.828Z,24.17
2023-03-18T09:03:33.219Z,24.05
2023-03-18T09:06:00.234Z,24.11
2023-03-18T09:08:28.813Z,24.13
2023-03-18T09:10:55.854Z,25.02
2023-03-18T09:13:22.607Z,26.06
2023-03-18T09:15:49.951Z,26.29
2023-03-18T09:18:17.862Z,26.14
2023-03-18T09:20:45.788Z,25.84
2023-03-18T09:23:14.153Z,25.51
2023-03-18T09:25:44.247Z,25.79
2023-03-18T09:28:10.954Z,25.91
2023-03-18T09:30:38.636Z,26.49
2023-03-18T09:33:06.415Z,27.59
2023-03-18T09:35:34.688Z,28.41
2023-03-18T09:38:01.886Z,29.46
2023-03-18T09:40:51.619Z,30.23
2023-03-18T09:43:46.903Z,29.72
2023-03-18T09:46:44.295Z,28.40
2023-03-18T09:49:26.900Z,29.23
2023-03-18T09:52:25.838Z,29.62
2023-03-18T09:55:02.389Z,28.88
2023-03-18T09:57:36.709Z,28.63
2023-03-18T10:00:23.674Z,29.02
2023-03-18T10:02:57.143Z,30.17
2023-03-18T10:05:30.885Z,31.68
2023-03-18T10:08:22.161Z,31.95
2023-03-18T10:10:48.980Z,32.64
2023-03-18T10:13:44.008Z,33.29
2023-03-18T10:16:20.000Z,34.92
2023-03-18T10:18:47.319Z,35.68
2023-03-18T10:21:35.843Z,34.97
2023-03-18T10:24:06.558Z,34.95
2023-03-18T10:27:02.628Z,35.35
2023-03-18T10:29:47.252Z,36.11
2023-03-18T10:32:42.635Z,36.15
2023-03-18T10:35:42.563Z,36.25
2023-03-18T10:38:22.525Z,35.44
2023-03-18T10:40:49.396Z,32.96
2023-03-18T10:43:25.412Z,31.46
2023-03-18T10:46:01.822Z,32.32
2023-03-18T10:48:43.334Z,33.46
2023-03-18T10:51:37.783Z,33.67
2023-03-18T10:54:49.827Z,33.86
2023-03-18T10:57:18.129Z,33.86
2023-03-18T10:59:45.603Z,32.30
2023-03-18T11:02:20.130Z,30.75
2023-03-18T11:04:49.282Z,31.39
2023-03-18T11:07:25.449Z,31.82
2023-03-18T11:09:53.028Z,32.79
2023-03-18T11:12:26.547Z,33.87
2023-03-18T11:14:54.224Z,34.10
2023-03-18T11:17:36.242Z,33.51
2023-03-18T11:20:16.361Z,32.22
2023-03-18T11:22:50.263Z,33.24
2023-03-18T11:25:22.980Z,33.67
2023-03-18T11:27:56.828Z,34.07
2023-03-18T11:30:34.312Z,34.74
2023-03-18T11:33:11.282Z,35.59
2023-03-18T11:35:57.581Z,35.98
2023-03-18T11:38:35.916Z,34.30
2023-03-18T11:41:07.848Z,32.34
2023-03-18T11:43:37.330Z,31.46
2023-03-18T11:46:07.794Z,30.50
2023-03-18T11:48:41.920Z,30.76
2023-03-18T11:51:29.662Z,31.56
2023-03-18T11:53:59.193Z,31.60
2023-03-18T11:56:28.987Z,31.17
2023-03-18T11:59:18.159Z,31.02
2023-03-18T12:01:46.175Z,32.09
2023-03-18T12:04:37.690Z,32.68
2023-03-18T12:07:17.796Z,33.88
2023-03-18T12:10:04.175Z,33.96
2023-03-18T12:13:05.012Z,35.23
2023-03-18T12:16:16.625Z,35.40
2023-03-18T12:19:06.507Z,34.91
2023-03-18T12:21:52.229Z,34.39
2023-03-18T12:24:51.907Z,34.96
2023-03-18T12:27:36.507Z,34.61
2023-03-18T12:30:24.708Z,34.51
2023-03-18T12:33:05.764Z,32.84
2023-03-18T12:36:01.597Z,31.70
2023-03-18T12:38:53.690Z,31.54
2023-03-18T12:41:31.424Z,31.87
2023-03-18T12:44:04.041Z,31.73
2023-03-18T12:46:35.460Z,32.30
2023-03-18T12:49:14.548Z,32.92
2023-03-18T12:51:50.035Z,32.25
2023-03-18T12:54:25.479Z,30.27
2023-03-18T12:57:12.291Z,28.43
2023-03-18T12:59:45.128Z,28.33
2023-03-18T13:02:29.568Z,29.05
2023-03-18T13:05:03.123Z,28.96
2023-03-18T13:07:40.205Z,28.60
2023-03-18T13:10:20.984Z,28.93
2023-03-18T13:12:52.722Z,28.88
2023-03-18T13:15:44.156Z,28.67
2023-03-18T13:18:26.857Z,28.46
2023-03-18T13:20:57.975Z,28.20
2023-03-18T13:23:46.449Z,27.90
2023-03-18T13:26:44.201Z,27.30
2023-03-18T13:29:48.646Z,25.83
2023-03-18T13:32:30.034Z,23.95
2023-03-18T13:35:28.311Z,22.68
2023-03-18T13:38:16.811Z,21.85
2023-03-18T13:41:11.672Z,21.72
2023-03-18T13:43:41.054Z,21.56
2023-03-18T13:46:26.724Z,21.39
2023-03-18T13:48:55.741Z,21.25
2023-03-18T13:51:23.004Z,21.12
2023-03-18T13:53:53.332Z,20.83
2023-03-18T13:56:39.816Z,19.98
2023-03-18T13:59:28.042Z,19.72
2023-03-18T14:01:59.646Z,18.96
2023-03-18T14:04:46.735Z,18.02
2023-03-18T14:07:21.273Z,17.37
2023-03-18T14:09:51.379Z,17.15
2023-03-18T14:12:32.976Z,17.09
2023-03-18T14:15:10.810Z,16.88
2023-03-18T14:17:37.985Z,16.70
2023-03-18T14:20:36.512Z,16.38
2023-03-18T14:23:43.087Z,16.34
2023-03-18T14:26:37.271Z,16.20
2023-03-18T14:29:07.322Z,15.97
2023-03-18T14:31:55.640Z,15.94
2023-03-18T14:34:24.750Z,15.61
2023-03-18T14:36:55.058Z,15.61
2023-03-18T14:39:31.119Z,15.24
2023-03-18T14:42:02.843Z,14.77
2023-03-18T14:44:46.936Z,14.15
2023-03-18T14:47:38.363Z,13.60
2023-03-18T14:50:19.938Z,13.47
2023-03-18T14:52:55.093Z,13.60
2023-03-18T14:55:35.170Z,13.92
2023-03-18T14:58:02.107Z,13.52
2023-03-18T15:00:35.721Z,12.98
2023-03-18T15:03:28.213Z,12.77
2023-03-18T15:06:01.868Z,12.54
2023-03-18T15:08:47.486Z,12.39
2023-03-18T15:11:18.324Z,12.18
2023-03-18T15:13:45.886Z,12.09
2023-03-18T15:16:17.680Z,12.00
2023-03-18T15:18:45.010Z,11.87
2023-03-18T15:21:23.070Z,11.75
2023-03-18T15:23:52.521Z,11.67
2023-03-18T15:26:29.912Z,11.62
2023-03-18T15:28:59.717Z,11.59
2023-03-18T15:31:28.029Z,11.52
2023-03-18T15:34:22.386Z,11.48
2023-03-18T15:36:57.117Z,11.46
2023-03-18T15:39:26.949Z,11.40
2023-03-18T15:41:54.909Z,11.34
2023-03-18T15:44:35.921Z,11.29
2023-03-18T15:47:10.598Z,11.26
2023-03-18T15:49:58.568Z,11.19
2023-03-18T15:52:38.794Z,11.17
2023-03-18T15:55:48.545Z,11.12
2023-03-18T15:58:22.297Z,11.07
2023-03-18T16:00:50.473Z,11.03
2023-03-18T16:03:21.620Z,11.02
2023-03-18T16:05:49.841Z,10.97
2023-03-18T16:08:19.724Z,10.91
2023-03-18T16:10:52.209Z,10.85
2023-03-18T16:13:23.902Z,10.77
2023-03-18T16:15:52.118Z,10.67
2023-03-18T16:18:20.852Z,10.56
2023-03-18T16:20:49.605Z,10.44
2023-03-18T16:23:17.648Z,10.34
2023-03-18T16:25:47.802Z,10.22
2023-03-18T16:28:27.477Z,10.09
2023-03-18T16:30:55.599Z,9.99
2023-03-18T16:33:23.284Z,9.86
2023-03-18T16:36:00.001Z,9.76
2023-03-18T16:38:27.989Z,9.62
2023-03-18T16:40:56.846Z,9.49
2023-03-18T16:43:30.041Z,9.39
2023-03-18T16:46:00.006Z,9.30
2023-03-18T16:48:27.608Z,9.20
2023-03-18T16:50:56.602Z,9.11
2023-03-18T16:53:26.905Z,9.05
2023-03-18T16:55:59.552Z,9.02
2023-03-18T16:58:37.102Z,8.91
2023-03-18T17:01:07.866Z,8.90
2023-03-18T17:03:35.937Z,8.84
2023-03-18T17:06:03.167Z,8.76
2023-03-18T17:08:30.045Z,8.68
2023-03-18T17:10:59.531Z,8.67
2023-03-18T17:13:29.874Z,8.60
2023-03-18T17:15:57.191Z,8.52
2023-03-18T17:18:25.265Z,8.52
2023-03-18T17:20:51.951Z,8.45
2023-03-18T17:23:28.031Z,8.33
2023-03-18T17:25:59.830Z,8.29
2023-03-18T17:28:32.253Z,8.23
2023-03-18T17:30:59.287Z,8.21
2023-03-18T17:33:30.279Z,8.24
2023-03-18T17:35:58.291Z,8.21
2023-03-18T17:38:25.328Z,8.17
2023-03-18T17:40:53.544Z,8.13
2023-03-18T17:43:50.514Z,8.09
2023-03-18T17:46:18.351Z,8.08
2023-03-18T17:48:45.854Z,8.04
2023-03-18T17:51:16.254Z,7.94
2023-03-18T17:53:48.368Z,7.90
2023-03-18T17:56:17.945Z,7.89
2023-03-18T17:58:47.938Z,7.86
2023-03-18T18:01:18.832Z,7.92
2023-03-18T18:03:47.166Z,7.84
2023-03-18T18:06:28.561Z,7.74
2023-03-18T18:09:00.542Z,7.67
2023-03-18T18:11:31.075Z,7.62
2023-03-18T18:14:19.496Z,7.61
2023-03-18T18:16:47.490Z,7.57
2023-03-18T18:19:15.693Z,7.62
2023-03-18T18:21:47.391Z,7.60
2023-03-18T18:24:22.335Z,7.55
2023-03-18T18:26:49.519Z,7.53
2023-03-18T18:29:22.923Z,7.51
2023-03-18T18:31:51.001Z,7.48
2023-03-18T18:34:19.750Z,7.47
2023-03-18T18:36:48.207Z,7.43
2023-03-18T18:39:15.395Z,7.38
2023-03-18T18:41:42.109Z,7.36
2023-03-18T18:44:08.727Z,7.36
2023-03-18T18:46:35.976Z,7.34
2023-03-18T18:49:03.033Z,7.30
2023-03-18T18:51:29.792Z,7.26
2023-03-18T18:53:56.543Z,7.19
2023-03-18T18:56:36.086Z,7.13
2023-03-18T18:59:21.654Z,7.09
2023-03-18T19:01:52.726Z,7.11
2023-03-18T19:04:21.280Z,7.13
2023-03-18T19:06:51.633Z,7.16
2023-03-18T19:09:21.354Z,7.13
2023-03-18T19:11:49.588Z,7.15
2023-03-18T19:14:25.535Z,7.09
2023-03-18T19:16:53.901Z,7.08
2023-03-18T19:19:28.190Z,7.08
2023-03-18T19:21:56.697Z,7.00
2023-03-18T19:24:30.380Z,6.91
2023-03-18T19:27:00.867Z,6.83
2023-03-18T19:29:28.277Z,6.78
2023-03-18T19:31:55.123Z,6.73
2023-03-18T19:34:22.833Z,6.78
2023-03-18T19:36:52.491Z,6.73
2023-03-18T19:39:21.755Z,6.63
2023-03-18T19:41:50.415Z,6.58
2023-03-18T19:44:22.828Z,6.53
2023-03-18T19:46:52.473Z,6.44
2023-03-18T19:49:34.672Z,6.42
2023-03-18T19:52:02.276Z,6.43
2023-03-18T19:54:32.307Z,6.49
2023-03-18T19:57:03.082Z,6.49
2023-03-18T19:59:38.096Z,6.41
2023-03-18T20:02:20.453Z,6.30
2023-03-18T20:04:50.578Z,6.31
2023-03-18T20:07:19.614Z,6.25
2023-03-18T20:09:47.683Z,6.19
2023-03-18T20:12:22.272Z,6.13
2023-03-18T20:14:49.418Z,6.05
2023-03-18T20:17:32.364Z,5.95
2023-03-18T20:19:59.385Z,5.85
2023-03-18T20:22:31.149Z,5.81
2023-03-18T20:25:00.861Z,5.75
2023-03-18T20:27:29.439Z,5.65
2023-03-18T20:29:56.788Z,5.57
2023-03-18T20:32:23.495Z,5.52
2023-03-18T20:34:50.704Z,5.49
2023-03-18T20:37:32.845Z,5.39
2023-03-18T20:40:01.079Z,5.35
2023-03-18T20:42:28.040Z,5.34
2023-03-18T20:44:54.857Z,5.37
2023-03-18T20:47:21.592Z,5.37
2023-03-18T20:49:48.538Z,5.37
2023-03-18T20:52:23.697Z,5.40
2023-03-18T20:54:50.562Z,5.41
2023-03-18T20:57:18.427Z,5.41
2023-03-18T20:59:48.511Z,5.44
2023-03-18T21:02:28.946Z,5.45
2023-03-18T21:04:57.759Z,5.47
2023-03-18T21:07:25.744Z,5.44
2023-03-18T21:09:53.286Z,5.42
2023-03-18T21:12:21.473Z,5.31
2023-03-18T21:14:49.141Z,5.23
2023-03-18T21:17:18.361Z,5.20
2023-03-18T21:19:46.494Z,5.21
2023-03-18T21:22:24.515Z,5.14
2023-03-18T21:24:52.054Z,5.15
2023-03-18T21:27:25.424Z,5.06
2023-03-18T21:29:54.336Z,5.02
2023-03-18T21:32:23.224Z,5.05
2023-03-18T21:34:52.246Z,5.00
2023-03-18T21:37:21.702Z,4.97
2023-03-18T21:39:49.204Z,4.88
2023-03-18T21:42:36.169Z,4.84
2023-03-18T21:45:03.919Z,4.80
2023-03-18T21:47:30.709Z,4.66
2023-03-18T21:49:57.562Z,4.60
2023-03-18T21:52:33.195Z,4.64
2023-03-18T21:55:01.470Z,4.56
2023-03-18T21:57:29.287Z,4.50
2023-03-18T21:59:56.009Z,4.51
2023-03-18T22:02:33.914Z,4.51
2023-03-18T22:05:10.460Z,4.50
2023-03-18T22:07:37.096Z,4.53
2023-03-18T22:10:06.401Z,4.49
2023-03-18T22:12:33.450Z,4.49
2023-03-18T22:15:00.471Z,4.47
2023-03-18T22:17:30.170Z,4.36
2023-03-18T22:19:58.692Z,4.33
2023-03-18T22:22:34.360Z,4.35
2023-03-18T22:25:01.294Z,4.42
2023-03-18T22:27:29.687Z,4.35
2023-03-18T22:29:58.688Z,4.30
2023-03-18T22:32:36.772Z,4.29
2023-03-18T22:35:07.133Z,4.26
2023-03-18T22:37:33.933Z,4.19
2023-03-18T22:40:01.322Z,4.15
2023-03-18T22:42:28.530Z,4.11
2023-03-18T22:44:55.591Z,4.07
2023-03-18T22:47:25.816Z,4.05
2023-03-18T22:49:53.057Z,4.01
2023-03-18T22:52:19.900Z,3.92
2023-03-18T22:54:49.826Z,3.94
2023-03-18T22:57:19.935Z,3.93
2023-03-18T22:59:47.062Z,3.92
2023-03-18T23:02:20.924Z,3.90
2023-03-18T23:04:49.277Z,3.89
2023-03-18T23:07:28.186Z,3.88
2023-03-18T23:09:57.328Z,3.84
2023-03-18T23:12:26.175Z,3.80
2023-03-18T23:14:53.647Z,3.79
2023-03-18T23:17:23.678Z,3.72
2023-03-18T23:19:52.041Z,3.73
2023-03-18T23:22:23.320Z,3.72
2023-03-18T23:24:50.855Z,3.68
2023-03-18T23:27:17.886Z,3.68
2023-03-18T23:29:45.554Z,3.63
2023-03-18T23:32:13.312Z,3.55
2023-03-18T23:34:40.476Z,3.47
2023-03-18T23:37:08.606Z,3.46
2023-03-18T23:39:35.752Z,3.51
2023-03-18T23:42:02.743Z,3.51
2023-03-18T23:44:29.884Z,3.50
2023-03-18T23:46:56.935Z,3.46
2023-03-18T23:49:23.989Z,3.43
2023-03-18T23:51:51.236Z,3.40
2023-03-18T23:54:18.180Z,3.33
2023-03-18T23:56:44.826Z,3.20
2023-03-18T23:59:11.551Z,3.12
